sensor_id;sensor_type;location;lat;lon;timestamp;P1;durP1;ratioP1;P2;durP2;ratioP2
25667;SDS011;18003;-33.830;151.202;2023-07-30T00:00:24;2.85;;;2.50;;
25667;SDS011;18003;-33.830;151.202;2023-07-30T00:02:55;2.70;;;2.50;;
25667;SDS011;18003;-33.830;151.202;2023-07-30T00:05:25;5.35;;;2.40;;
25667;SDS011;18003;-33.830;151.202;2023-07-30T00:07:55;2.50;;;2.30;;
25667;SDS011;18003;-33.830;151.202;2023-07-30T00:10:25;2.47;;;2.25;;
25667;SDS011;18003;-33.830;151.202;2023-07-30T00:12:55;2.70;;;2.50;;
25667;SDS011;18003;-33.830;151.202;2023-07-30T00:15:25;2.65;;;2.42;;
25667;SDS011;18003;-33.830;151.202;2023-07-30T00:18:14;3.92;;;2.67;;
25667;SDS011;18003;-33.830;151.202;2023-07-30T00:20:45;2.70;;;2.37;;
25667;SDS011;18003;-33.830;151.202;2023-07-30T00:23:15;2.45;;;2.30;;
25667;SDS011;18003;-33.830;151.202;2023-07-30T00:25:45;2.52;;;2.05;;
25667;SDS011;18003;-33.830;151.202;2023-07-30T00:28:14;3.17;;;2.22;;
25667;SDS011;18003;-33.830;151.202;2023-07-30T00:30:45;2.30;;;2.20;;
25667;SDS011;18003;-33.830;151.202;2023-07-30T00:33:15;2.27;;;2.08;;
25667;SDS011;18003;-33.830;151.202;2023-07-30T00:35:45;2.58;;;2.22;;
25667;SDS011;18003;-33.830;151.202;2023-07-30T00:38:15;2.85;;;2.20;;
25667;SDS011;18003;-33.830;151.202;2023-07-30T00:40:45;3.25;;;2.00;;
25667;SDS011;18003;-33.830;151.202;2023-07-30T00:43:15;2.20;;;2.00;;
25667;SDS011;18003;-33.830;151.202;2023-07-30T00:45:45;3.27;;;2.10;;
25667;SDS011;18003;-33.830;151.202;2023-07-30T00:48:15;2.30;;;2.10;;
25667;SDS011;18003;-33.830;151.202;2023-07-30T00:50:45;2.47;;;2.02;;
25667;SDS011;18003;-33.830;151.202;2023-07-30T00:53:15;3.47;;;2.20;;
25667;SDS011;18003;-33.830;151.202;2023-07-30T00:55:46;3.23;;;2.33;;
25667;SDS011;18003;-33.830;151.202;2023-07-30T00:58:19;2.77;;;2.40;;
25667;SDS011;18003;-33.830;151.202;2023-07-30T01:00:48;2.70;;;2.30;;
25667;SDS011;18003;-33.830;151.202;2023-07-30T01:03:20;5.95;;;2.70;;
25667;SDS011;18003;-33.830;151.202;2023-07-30T01:08:28;2.52;;;2.33;;
25667;SDS011;18003;-33.830;151.202;2023-07-30T01:10:59;2.33;;;2.22;;
25667;SDS011;18003;-33.830;151.202;2023-07-30T01:13:29;2.60;;;2.40;;
25667;SDS011;18003;-33.830;151.202;2023-07-30T01:16:01;3.45;;;2.08;;
25667;SDS011;18003;-33.830;151.202;2023-07-30T01:21:01;2.20;;;2.00;;
25667;SDS011;18003;-33.830;151.202;2023-07-30T01:23:31;2.10;;;1.90;;
25667;SDS011;18003;-33.830;151.202;2023-07-30T01:26:16;3.17;;;2.02;;
25667;SDS011;18003;-33.830;151.202;2023-07-30T01:29:07;2.42;;;2.05;;
25667;SDS011;18003;-33.830;151.202;2023-07-30T01:31:44;2.37;;;2.20;;
25667;SDS011;18003;-33.830;151.202;2023-07-30T01:34:15;2.27;;;2.10;;
25667;SDS011;18003;-33.830;151.202;2023-07-30T01:36:47;2.67;;;2.42;;
25667;SDS011;18003;-33.830;151.202;2023-07-30T01:39:18;3.52;;;2.27;;
25667;SDS011;18003;-33.830;151.202;2023-07-30T01:41:49;3.63;;;2.23;;
25667;SDS011;18003;-33.830;151.202;2023-07-30T01:44:26;2.50;;;2.30;;
25667;SDS011;18003;-33.830;151.202;2023-07-30T01:46:58;2.40;;;2.20;;
25667;SDS011;18003;-33.830;151.202;2023-07-30T01:49:28;2.22;;;2.12;;
25667;SDS011;18003;-33.830;151.202;2023-07-30T01:51:58;2.20;;;2.10;;
25667;SDS011;18003;-33.830;151.202;2023-07-30T01:54:28;3.58;;;2.40;;
25667;SDS011;18003;-33.830;151.202;2023-07-30T01:57:15;2.75;;;2.60;;
25667;SDS011;18003;-33.830;151.202;2023-07-30T01:59:42;2.95;;;2.47;;
25667;SDS011;18003;-33.830;151.202;2023-07-30T02:02:12;2.90;;;2.70;;
25667;SDS011;18003;-33.830;151.202;2023-07-30T02:04:42;2.90;;;2.33;;
25667;SDS011;18003;-33.830;151.202;2023-07-30T02:07:27;2.05;;;1.95;;
25667;SDS011;18003;-33.830;151.202;2023-07-30T02:09:57;2.50;;;2.40;;
25667;SDS011;18003;-33.830;151.202;2023-07-30T02:12:33;2.92;;;2.30;;
25667;SDS011;18003;-33.830;151.202;2023-07-30T02:15:03;2.27;;;2.08;;
25667;SDS011;18003;-33.830;151.202;2023-07-30T02:17:34;2.20;;;2.00;;
25667;SDS011;18003;-33.830;151.202;2023-07-30T02:20:04;2.75;;;2.12;;
25667;SDS011;18003;-33.830;151.202;2023-07-30T02:22:35;2.10;;;2.00;;
25667;SDS011;18003;-33.830;151.202;2023-07-30T02:27:40;1.87;;;1.77;;
25667;SDS011;18003;-33.830;151.202;2023-07-30T02:30:10;2.90;;;2.30;;
25667;SDS011;18003;-33.830;151.202;2023-07-30T02:32:41;2.12;;;1.92;;
25667;SDS011;18003;-33.830;151.202;2023-07-30T02:35:10;2.42;;;1.98;;
25667;SDS011;18003;-33.830;151.202;2023-07-30T02:37:41;2.37;;;2.00;;
25667;SDS011;18003;-33.830;151.202;2023-07-30T02:40:11;2.22;;;2.00;;
25667;SDS011;18003;-33.830;151.202;2023-07-30T02:42:41;2.05;;;1.80;;
25667;SDS011;18003;-33.830;151.202;2023-07-30T02:45:11;2.60;;;2.33;;
25667;SDS011;18003;-33.830;151.202;2023-07-30T02:47:41;1.98;;;1.70;;
25667;SDS011;18003;-33.830;151.202;2023-07-30T02:50:12;2.62;;;2.17;;
25667;SDS011;18003;-33.830;151.202;2023-07-30T02:52:43;3.35;;;2.20;;
25667;SDS011;18003;-33.830;151.202;2023-07-30T02:55:13;4.90;;;2.15;;
25667;SDS011;18003;-33.830;151.202;2023-07-30T02:57:43;2.08;;;1.98;;
25667;SDS011;18003;-33.830;151.202;2023-07-30T03:00:13;2.77;;;1.98;;
25667;SDS011;18003;-33.830;151.202;2023-07-30T03:02:43;2.17;;;2.02;;
25667;SDS011;18003;-33.830;151.202;2023-07-30T03:05:13;2.17;;;2.08;;
25667;SDS011;18003;-33.830;151.202;2023-07-30T03:07:43;2.47;;;2.27;;
25667;SDS011;18003;-33.830;151.202;2023-07-30T03:10:13;2.30;;;2.10;;
25667;SDS011;18003;-33.830;151.202;2023-07-30T03:12:43;2.85;;;2.50;;
25667;SDS011;18003;-33.830;151.202;2023-07-30T03:15:13;3.17;;;2.87;;
25667;SDS011;18003;-33.830;151.202;2023-07-30T03:17:43;2.52;;;2.33;;
25667;SDS011;18003;-33.830;151.202;2023-07-30T03:20:13;2.60;;;2.40;;
25667;SDS011;18003;-33.830;151.202;2023-07-30T03:22:43;2.37;;;2.17;;
25667;SDS011;18003;-33.830;151.202;2023-07-30T03:25:13;2.90;;;2.70;;
25667;SDS011;18003;-33.830;151.202;2023-07-30T03:27:47;3.12;;;2.27;;
25667;SDS011;18003;-33.830;151.202;2023-07-30T03:30:17;2.80;;;2.60;;
25667;SDS011;18003;-33.830;151.202;2023-07-30T03:32:47;4.03;;;2.50;;
25667;SDS011;18003;-33.830;151.202;2023-07-30T03:35:17;2.65;;;2.45;;
25667;SDS011;18003;-33.830;151.202;2023-07-30T03:37:51;2.90;;;2.70;;
25667;SDS011;18003;-33.830;151.202;2023-07-30T03:40:21;2.75;;;2.40;;
25667;SDS011;18003;-33.830;151.202;2023-07-30T03:42:51;2.55;;;2.35;;
25667;SDS011;18003;-33.830;151.202;2023-07-30T03:45:22;2.87;;;2.60;;
25667;SDS011;18003;-33.830;151.202;2023-07-30T03:47:52;2.60;;;2.40;;
25667;SDS011;18003;-33.830;151.202;2023-07-30T03:50:23;4.47;;;2.90;;
25667;SDS011;18003;-33.830;151.202;2023-07-30T03:52:53;2.70;;;2.50;;
25667;SDS011;18003;-33.830;151.202;2023-07-30T03:55:24;3.08;;;2.87;;
25667;SDS011;18003;-33.830;151.202;2023-07-30T03:57:55;2.70;;;2.50;;
25667;SDS011;18003;-33.830;151.202;2023-07-30T04:00:25;2.72;;;2.35;;
25667;SDS011;18003;-33.830;151.202;2023-07-30T04:03:01;3.37;;;2.70;;
25667;SDS011;18003;-33.830;151.202;2023-07-30T04:05:27;5.53;;;2.12;;
25667;SDS011;18003;-33.830;151.202;2023-07-30T04:10:43;2.72;;;2.50;;
25667;SDS011;18003;-33.830;151.202;2023-07-30T04:13:13;5.12;;;2.50;;
25667;SDS011;18003;-33.830;151.202;2023-07-30T04:15:43;2.67;;;2.30;;
25667;SDS011;18003;-33.830;151.202;2023-07-30T04:18:14;2.90;;;2.70;;
25667;SDS011;18003;-33.830;151.202;2023-07-30T04:20:44;2.58;;;2.37;;
25667;SDS011;18003;-33.830;151.202;2023-07-30T04:23:14;3.15;;;2.50;;
25667;SDS011;18003;-33.830;151.202;2023-07-30T04:25:44;2.58;;;2.37;;
25667;SDS011;18003;-33.830;151.202;2023-07-30T04:28:19;2.62;;;2.42;;
25667;SDS011;18003;-33.830;151.202;2023-07-30T04:30:53;2.45;;;2.25;;
25667;SDS011;18003;-33.830;151.202;2023-07-30T04:33:41;2.47;;;2.37;;
25667;SDS011;18003;-33.830;151.202;2023-07-30T04:36:00;2.52;;;2.30;;
25667;SDS011;18003;-33.830;151.202;2023-07-30T04:38:30;2.58;;;2.40;;
25667;SDS011;18003;-33.830;151.202;2023-07-30T04:41:00;2.77;;;2.58;;
25667;SDS011;18003;-33.830;151.202;2023-07-30T04:43:30;2.40;;;2.30;;
25667;SDS011;18003;-33.830;151.202;2023-07-30T04:46:01;5.65;;;2.40;;
25667;SDS011;18003;-33.830;151.202;2023-07-30T04:48:31;2.80;;;2.45;;
25667;SDS011;18003;-33.830;151.202;2023-07-30T04:51:01;3.50;;;2.17;;
25667;SDS011;18003;-33.830;151.202;2023-07-30T04:53:31;2.98;;;2.10;;
25667;SDS011;18003;-33.830;151.202;2023-07-30T04:56:01;2.72;;;2.40;;
25667;SDS011;18003;-33.830;151.202;2023-07-30T04:58:31;2.92;;;2.50;;
25667;SDS011;18003;-33.830;151.202;2023-07-30T05:01:01;2.37;;;2.17;;
25667;SDS011;18003;-33.830;151.202;2023-07-30T05:03:31;2.67;;;2.58;;
25667;SDS011;18003;-33.830;151.202;2023-07-30T05:06:01;3.20;;;2.92;;
25667;SDS011;18003;-33.830;151.202;2023-07-30T05:08:32;2.30;;;2.20;;
25667;SDS011;18003;-33.830;151.202;2023-07-30T05:11:02;2.70;;;2.50;;
25667;SDS011;18003;-33.830;151.202;2023-07-30T05:13:32;2.58;;;2.45;;
25667;SDS011;18003;-33.830;151.202;2023-07-30T05:16:02;2.70;;;2.50;;
25667;SDS011;18003;-33.830;151.202;2023-07-30T05:18:32;3.50;;;2.50;;
25667;SDS011;18003;-33.830;151.202;2023-07-30T05:21:02;3.12;;;2.85;;
25667;SDS011;18003;-33.830;151.202;2023-07-30T05:23:32;2.80;;;2.60;;
25667;SDS011;18003;-33.830;151.202;2023-07-30T05:26:02;2.50;;;2.37;;
25667;SDS011;18003;-33.830;151.202;2023-07-30T05:28:32;2.70;;;2.50;;
25667;SDS011;18003;-33.830;151.202;2023-07-30T05:31:02;2.40;;;2.30;;
25667;SDS011;18003;-33.830;151.202;2023-07-30T05:33:32;2.50;;;2.30;;
25667;SDS011;18003;-33.830;151.202;2023-07-30T05:36:02;2.83;;;2.62;;
25667;SDS011;18003;-33.830;151.202;2023-07-30T05:38:32;2.62;;;2.42;;
25667;SDS011;18003;-33.830;151.202;2023-07-30T05:41:02;2.92;;;2.70;;
25667;SDS011;18003;-33.830;151.202;2023-07-30T05:43:32;3.58;;;2.83;;
25667;SDS011;18003;-33.830;151.202;2023-07-30T05:46:02;2.90;;;2.67;;
25667;SDS011;18003;-33.830;151.202;2023-07-30T05:48:33;3.98;;;2.67;;
25667;SDS011;18003;-33.830;151.202;2023-07-30T05:51:03;2.90;;;2.70;;
25667;SDS011;18003;-33.830;151.202;2023-07-30T05:53:33;3.40;;;2.65;;
25667;SDS011;18003;-33.830;151.202;2023-07-30T05:56:03;5.00;;;2.85;;
25667;SDS011;18003;-33.830;151.202;2023-07-30T05:58:33;4.80;;;2.80;;
25667;SDS011;18003;-33.830;151.202;2023-07-30T06:01:03;3.22;;;2.92;;
25667;SDS011;18003;-33.830;151.202;2023-07-30T06:03:33;3.25;;;3.05;;
25667;SDS011;18003;-33.830;151.202;2023-07-30T06:06:03;3.30;;;3.00;;
25667;SDS011;18003;-33.830;151.202;2023-07-30T06:08:33;2.92;;;2.72;;
25667;SDS011;18003;-33.830;151.202;2023-07-30T06:11:03;5.58;;;3.02;;
25667;SDS011;18003;-33.830;151.202;2023-07-30T06:13:33;4.35;;;2.95;;
25667;SDS011;18003;-33.830;151.202;2023-07-30T06:16:03;7.25;;;3.30;;
25667;SDS011;18003;-33.830;151.202;2023-07-30T06:18:33;3.62;;;3.42;;
25667;SDS011;18003;-33.830;151.202;2023-07-30T06:21:03;3.60;;;2.80;;
25667;SDS011;18003;-33.830;151.202;2023-07-30T06:23:33;4.15;;;3.00;;
25667;SDS011;18003;-33.830;151.202;2023-07-30T06:26:02;3.40;;;3.10;;
25667;SDS011;18003;-33.830;151.202;2023-07-30T06:28:32;5.15;;;3.17;;
25667;SDS011;18003;-33.830;151.202;2023-07-30T06:31:02;4.25;;;2.95;;
25667;SDS011;18003;-33.830;151.202;2023-07-30T06:33:32;3.40;;;3.10;;
25667;SDS011;18003;-33.830;151.202;2023-07-30T06:36:02;3.37;;;3.08;;
25667;SDS011;18003;-33.830;151.202;2023-07-30T06:38:32;3.25;;;3.02;;
25667;SDS011;18003;-33.830;151.202;2023-07-30T06:41:02;3.62;;;2.75;;
25667;SDS011;18003;-33.830;151.202;2023-07-30T06:43:31;3.30;;;3.10;;
25667;SDS011;18003;-33.830;151.202;2023-07-30T06:46:01;3.52;;;3.20;;
25667;SDS011;18003;-33.830;151.202;2023-07-30T06:48:31;4.30;;;3.27;;
25667;SDS011;18003;-33.830;151.202;2023-07-30T06:51:01;4.15;;;3.00;;
25667;SDS011;18003;-33.830;151.202;2023-07-30T06:53:32;3.27;;;3.02;;
25667;SDS011;18003;-33.830;151.202;2023-07-30T06:56:02;3.35;;;2.90;;
25667;SDS011;18003;-33.830;151.202;2023-07-30T06:58:32;3.05;;;2.85;;
25667;SDS011;18003;-33.830;151.202;2023-07-30T07:01:01;3.20;;;2.90;;
25667;SDS011;18003;-33.830;151.202;2023-07-30T07:03:31;3.22;;;2.92;;
25667;SDS011;18003;-33.830;151.202;2023-07-30T07:06:01;3.35;;;3.05;;
25667;SDS011;18003;-33.830;151.202;2023-07-30T07:08:31;3.00;;;2.80;;
25667;SDS011;18003;-33.830;151.202;2023-07-30T07:11:01;3.27;;;2.98;;
25667;SDS011;18003;-33.830;151.202;2023-07-30T07:13:34;3.42;;;3.12;;
25667;SDS011;18003;-33.830;151.202;2023-07-30T07:16:03;3.20;;;2.67;;
25667;SDS011;18003;-33.830;151.202;2023-07-30T07:18:33;4.60;;;2.72;;
25667;SDS011;18003;-33.830;151.202;2023-07-30T07:21:03;4.70;;;3.25;;
25667;SDS011;18003;-33.830;151.202;2023-07-30T07:23:34;4.20;;;3.30;;
25667;SDS011;18003;-33.830;151.202;2023-07-30T07:26:04;4.72;;;3.20;;
25667;SDS011;18003;-33.830;151.202;2023-07-30T07:28:34;4.40;;;3.00;;
25667;SDS011;18003;-33.830;151.202;2023-07-30T07:31:03;4.65;;;3.30;;
25667;SDS011;18003;-33.830;151.202;2023-07-30T07:33:33;3.83;;;3.30;;
25667;SDS011;18003;-33.830;151.202;2023-07-30T07:36:04;3.75;;;3.40;;
25667;SDS011;18003;-33.830;151.202;2023-07-30T07:38:34;3.77;;;3.00;;
25667;SDS011;18003;-33.830;151.202;2023-07-30T07:41:04;3.40;;;3.02;;
25667;SDS011;18003;-33.830;151.202;2023-07-30T07:43:34;4.45;;;2.95;;
25667;SDS011;18003;-33.830;151.202;2023-07-30T07:46:04;3.70;;;3.35;;
25667;SDS011;18003;-33.830;151.202;2023-07-30T07:48:35;5.05;;;3.10;;
25667;SDS011;18003;-33.830;151.202;2023-07-30T07:51:05;3.30;;;3.00;;
25667;SDS011;18003;-33.830;151.202;2023-07-30T07:53:35;3.58;;;3.25;;
25667;SDS011;18003;-33.830;151.202;2023-07-30T07:56:05;4.90;;;3.33;;
25667;SDS011;18003;-33.830;151.202;2023-07-30T07:58:35;3.40;;;3.10;;
25667;SDS011;18003;-33.830;151.202;2023-07-30T08:01:04;6.03;;;3.40;;
25667;SDS011;18003;-33.830;151.202;2023-07-30T08:03:34;4.17;;;3.60;;
25667;SDS011;18003;-33.830;151.202;2023-07-30T08:06:05;4.33;;;3.35;;
25667;SDS011;18003;-33.830;151.202;2023-07-30T08:08:35;3.80;;;3.40;;
25667;SDS011;18003;-33.830;151.202;2023-07-30T08:11:10;3.50;;;3.20;;
25667;SDS011;18003;-33.830;151.202;2023-07-30T08:13:38;4.28;;;3.58;;
25667;SDS011;18003;-33.830;151.202;2023-07-30T08:16:08;4.00;;;3.60;;
25667;SDS011;18003;-33.830;151.202;2023-07-30T08:18:38;4.70;;;3.60;;
25667;SDS011;18003;-33.830;151.202;2023-07-30T08:21:07;3.60;;;3.30;;
25667;SDS011;18003;-33.830;151.202;2023-07-30T08:23:39;4.08;;;3.45;;
25667;SDS011;18003;-33.830;151.202;2023-07-30T08:26:09;4.70;;;3.45;;
25667;SDS011;18003;-33.830;151.202;2023-07-30T08:28:39;5.05;;;4.00;;
25667;SDS011;18003;-33.830;151.202;2023-07-30T08:31:09;4.78;;;4.10;;
25667;SDS011;18003;-33.830;151.202;2023-07-30T08:33:39;4.95;;;4.10;;
25667;SDS011;18003;-33.830;151.202;2023-07-30T08:36:09;6.30;;;4.22;;
25667;SDS011;18003;-33.830;151.202;2023-07-30T08:41:50;4.95;;;4.42;;
25667;SDS011;18003;-33.830;151.202;2023-07-30T08:44:19;5.33;;;4.30;;
25667;SDS011;18003;-33.830;151.202;2023-07-30T08:46:50;17.30;;;4.60;;
25667;SDS011;18003;-33.830;151.202;2023-07-30T08:49:20;5.90;;;4.05;;
25667;SDS011;18003;-33.830;151.202;2023-07-30T08:51:52;7.65;;;4.45;;
25667;SDS011;18003;-33.830;151.202;2023-07-30T08:54:23;5.55;;;4.53;;
25667;SDS011;18003;-33.830;151.202;2023-07-30T08:56:53;5.03;;;4.53;;
25667;SDS011;18003;-33.830;151.202;2023-07-30T08:59:23;5.72;;;5.05;;
25667;SDS011;18003;-33.830;151.202;2023-07-30T09:01:55;5.53;;;5.03;;
25667;SDS011;18003;-33.830;151.202;2023-07-30T09:04:26;6.60;;;5.08;;
25667;SDS011;18003;-33.830;151.202;2023-07-30T09:06:59;6.15;;;5.15;;
25667;SDS011;18003;-33.830;151.202;2023-07-30T09:09:29;6.00;;;4.65;;
25667;SDS011;18003;-33.830;151.202;2023-07-30T09:11:59;8.00;;;5.37;;
25667;SDS011;18003;-33.830;151.202;2023-07-30T09:14:33;6.28;;;5.65;;
25667;SDS011;18003;-33.830;151.202;2023-07-30T09:17:03;6.40;;;5.12;;
25667;SDS011;18003;-33.830;151.202;2023-07-30T09:19:35;7.22;;;5.45;;
25667;SDS011;18003;-33.830;151.202;2023-07-30T09:22:06;6.87;;;4.67;;
25667;SDS011;18003;-33.830;151.202;2023-07-30T09:24:36;5.22;;;4.72;;
25667;SDS011;18003;-33.830;151.202;2023-07-30T09:27:07;4.12;;;3.72;;
25667;SDS011;18003;-33.830;151.202;2023-07-30T09:29:37;4.22;;;3.77;;
25667;SDS011;18003;-33.830;151.202;2023-07-30T09:32:07;4.07;;;3.53;;
25667;SDS011;18003;-33.830;151.202;2023-07-30T09:34:38;4.35;;;3.47;;
25667;SDS011;18003;-33.830;151.202;2023-07-30T09:37:10;3.45;;;3.20;;
25667;SDS011;18003;-33.830;151.202;2023-07-30T09:39:41;3.12;;;2.83;;
25667;SDS011;18003;-33.830;151.202;2023-07-30T09:45:25;3.90;;;3.25;;
25667;SDS011;18003;-33.830;151.202;2023-07-30T09:48:04;3.52;;;3.05;;
25667;SDS011;18003;-33.830;151.202;2023-07-30T09:50:48;3.58;;;3.25;;
25667;SDS011;18003;-33.830;151.202;2023-07-30T09:55:49;2.83;;;2.62;;
25667;SDS011;18003;-33.830;151.202;2023-07-30T09:58:19;2.90;;;2.70;;
25667;SDS011;18003;-33.830;151.202;2023-07-30T10:00:49;2.60;;;2.40;;
25667;SDS011;18003;-33.830;151.202;2023-07-30T10:03:19;2.90;;;2.50;;
25667;SDS011;18003;-33.830;151.202;2023-07-30T10:05:49;2.65;;;2.45;;
25667;SDS011;18003;-33.830;151.202;2023-07-30T10:08:21;3.40;;;2.80;;
25667;SDS011;18003;-33.830;151.202;2023-07-30T10:10:54;2.90;;;2.70;;
25667;SDS011;18003;-33.830;151.202;2023-07-30T10:13:25;3.17;;;2.87;;
25667;SDS011;18003;-33.830;151.202;2023-07-30T10:15:55;2.60;;;2.40;;
25667;SDS011;18003;-33.830;151.202;2023-07-30T10:18:41;2.60;;;2.40;;
25667;SDS011;18003;-33.830;151.202;2023-07-30T10:21:21;4.10;;;2.67;;
25667;SDS011;18003;-33.830;151.202;2023-07-30T10:27:00;3.10;;;2.60;;
25667;SDS011;18003;-33.830;151.202;2023-07-30T10:29:28;2.90;;;2.70;;
25667;SDS011;18003;-33.830;151.202;2023-07-30T10:37:56;2.85;;;2.52;;
25667;SDS011;18003;-33.830;151.202;2023-07-30T10:40:38;2.80;;;2.60;;
25667;SDS011;18003;-33.830;151.202;2023-07-30T10:43:15;2.98;;;2.77;;
25667;SDS011;18003;-33.830;151.202;2023-07-30T10:45:53;2.95;;;2.75;;
25667;SDS011;18003;-33.830;151.202;2023-07-30T10:48:22;2.92;;;2.72;;
25667;SDS011;18003;-33.830;151.202;2023-07-30T10:51:08;2.75;;;2.58;;
25667;SDS011;18003;-33.830;151.202;2023-07-30T10:53:34;2.72;;;2.52;;
25667;SDS011;18003;-33.830;151.202;2023-07-30T10:56:06;2.58;;;2.37;;
25667;SDS011;18003;-33.830;151.202;2023-07-30T10:58:37;2.83;;;2.62;;
25667;SDS011;18003;-33.830;151.202;2023-07-30T11:01:07;2.77;;;2.58;;
25667;SDS011;18003;-33.830;151.202;2023-07-30T11:03:37;2.45;;;2.35;;
25667;SDS011;18003;-33.830;151.202;2023-07-30T11:06:07;3.50;;;3.20;;
25667;SDS011;18003;-33.830;151.202;2023-07-30T11:08:38;3.98;;;3.10;;
25667;SDS011;18003;-33.830;151.202;2023-07-30T11:11:09;3.37;;;3.00;;
25667;SDS011;18003;-33.830;151.202;2023-07-30T11:13:40;3.67;;;3.12;;
25667;SDS011;18003;-33.830;151.202;2023-07-30T11:16:13;3.55;;;3.25;;
25667;SDS011;18003;-33.830;151.202;2023-07-30T11:18:44;3.50;;;3.20;;
25667;SDS011;18003;-33.830;151.202;2023-07-30T11:21:15;4.03;;;3.25;;
25667;SDS011;18003;-33.830;151.202;2023-07-30T11:23:46;4.00;;;3.22;;
25667;SDS011;18003;-33.830;151.202;2023-07-30T11:26:18;3.58;;;3.27;;
25667;SDS011;18003;-33.830;151.202;2023-07-30T11:28:48;4.08;;;3.45;;
25667;SDS011;18003;-33.830;151.202;2023-07-30T11:31:18;4.40;;;3.30;;
25667;SDS011;18003;-33.830;151.202;2023-07-30T11:33:50;13.68;;;3.98;;
25667;SDS011;18003;-33.830;151.202;2023-07-30T11:36:20;16.35;;;4.45;;
25667;SDS011;18003;-33.830;151.202;2023-07-30T11:41:26;5.22;;;3.15;;
25667;SDS011;18003;-33.830;151.202;2023-07-30T11:43:57;2.80;;;2.60;;
25667;SDS011;18003;-33.830;151.202;2023-07-30T11:46:27;3.35;;;3.05;;
25667;SDS011;18003;-33.830;151.202;2023-07-30T11:49:14;4.00;;;3.60;;
25667;SDS011;18003;-33.830;151.202;2023-07-30T11:51:44;3.98;;;3.55;;
25667;SDS011;18003;-33.830;151.202;2023-07-30T11:54:21;3.35;;;3.02;;
25667;SDS011;18003;-33.830;151.202;2023-07-30T11:56:54;4.17;;;3.50;;
25667;SDS011;18003;-33.830;151.202;2023-07-30T11:59:25;4.15;;;3.80;;
25667;SDS011;18003;-33.830;151.202;2023-07-30T12:01:55;3.67;;;3.37;;
25667;SDS011;18003;-33.830;151.202;2023-07-30T12:04:25;4.05;;;3.67;;
25667;SDS011;18003;-33.830;151.202;2023-07-30T12:06:56;5.23;;;3.43;;
25667;SDS011;18003;-33.830;151.202;2023-07-30T12:09:27;4.05;;;3.45;;
25667;SDS011;18003;-33.830;151.202;2023-07-30T12:12:06;3.77;;;3.22;;
25667;SDS011;18003;-33.830;151.202;2023-07-30T12:14:43;3.90;;;3.00;;
25667;SDS011;18003;-33.830;151.202;2023-07-30T12:17:20;4.87;;;3.20;;
25667;SDS011;18003;-33.830;151.202;2023-07-30T12:19:50;3.30;;;2.98;;
25667;SDS011;18003;-33.830;151.202;2023-07-30T12:23:20;3.90;;;2.85;;
25667;SDS011;18003;-33.830;151.202;2023-07-30T12:25:05;3.17;;;2.80;;
25667;SDS011;18003;-33.830;151.202;2023-07-30T12:27:36;4.42;;;3.40;;
25667;SDS011;18003;-33.830;151.202;2023-07-30T12:30:06;3.40;;;3.10;;
25667;SDS011;18003;-33.830;151.202;2023-07-30T12:32:39;4.92;;;3.25;;
25667;SDS011;18003;-33.830;151.202;2023-07-30T12:35:10;3.75;;;2.98;;
25667;SDS011;18003;-33.830;151.202;2023-07-30T12:37:40;4.08;;;3.22;;
25667;SDS011;18003;-33.830;151.202;2023-07-30T12:40:10;4.40;;;3.12;;
25667;SDS011;18003;-33.830;151.202;2023-07-30T12:42:40;3.65;;;3.12;;
25667;SDS011;18003;-33.830;151.202;2023-07-30T12:45:10;4.10;;;3.27;;
25667;SDS011;18003;-33.830;151.202;2023-07-30T12:47:40;3.90;;;3.50;;
25667;SDS011;18003;-33.830;151.202;2023-07-30T12:50:11;4.20;;;3.50;;
25667;SDS011;18003;-33.830;151.202;2023-07-30T12:52:41;3.92;;;3.40;;
25667;SDS011;18003;-33.830;151.202;2023-07-30T12:55:11;3.90;;;3.60;;
25667;SDS011;18003;-33.830;151.202;2023-07-30T12:57:41;4.33;;;3.60;;
25667;SDS011;18003;-33.830;151.202;2023-07-30T13:00:11;3.98;;;3.62;;
25667;SDS011;18003;-33.830;151.202;2023-07-30T13:02:41;5.67;;;3.67;;
25667;SDS011;18003;-33.830;151.202;2023-07-30T13:05:11;5.55;;;3.40;;
25667;SDS011;18003;-33.830;151.202;2023-07-30T13:07:42;4.10;;;3.80;;
25667;SDS011;18003;-33.830;151.202;2023-07-30T13:10:13;9.08;;;4.10;;
25667;SDS011;18003;-33.830;151.202;2023-07-30T13:12:43;4.08;;;3.50;;
25667;SDS011;18003;-33.830;151.202;2023-07-30T13:15:16;5.90;;;3.50;;
25667;SDS011;18003;-33.830;151.202;2023-07-30T13:17:46;4.47;;;3.80;;
25667;SDS011;18003;-33.830;151.202;2023-07-30T13:20:16;4.05;;;3.40;;
25667;SDS011;18003;-33.830;151.202;2023-07-30T13:22:46;3.80;;;3.50;;
25667;SDS011;18003;-33.830;151.202;2023-07-30T13:25:15;4.30;;;3.37;;
25667;SDS011;18003;-33.830;151.202;2023-07-30T13:27:46;4.10;;;3.70;;
25667;SDS011;18003;-33.830;151.202;2023-07-30T13:30:16;5.42;;;3.87;;
25667;SDS011;18003;-33.830;151.202;2023-07-30T13:32:45;4.45;;;4.05;;
25667;SDS011;18003;-33.830;151.202;2023-07-30T13:35:15;4.00;;;3.70;;
25667;SDS011;18003;-33.830;151.202;2023-07-30T13:37:45;4.28;;;3.80;;
25667;SDS011;18003;-33.830;151.202;2023-07-30T13:40:15;4.30;;;3.90;;
25667;SDS011;18003;-33.830;151.202;2023-07-30T13:42:45;4.40;;;4.00;;
25667;SDS011;18003;-33.830;151.202;2023-07-30T13:45:15;4.25;;;3.85;;
25667;SDS011;18003;-33.830;151.202;2023-07-30T13:47:44;5.35;;;4.15;;
25667;SDS011;18003;-33.830;151.202;2023-07-30T13:50:14;4.65;;;3.70;;
25667;SDS011;18003;-33.830;151.202;2023-07-30T13:52:44;4.40;;;3.80;;
25667;SDS011;18003;-33.830;151.202;2023-07-30T13:55:14;5.37;;;3.65;;
25667;SDS011;18003;-33.830;151.202;2023-07-30T14:00:25;5.42;;;3.85;;
25667;SDS011;18003;-33.830;151.202;2023-07-30T14:05:28;4.25;;;3.85;;
25667;SDS011;18003;-33.830;151.202;2023-07-30T14:08:13;4.03;;;3.72;;
25667;SDS011;18003;-33.830;151.202;2023-07-30T14:10:46;4.15;;;3.75;;
25667;SDS011;18003;-33.830;151.202;2023-07-30T14:13:16;4.40;;;4.00;;
25667;SDS011;18003;-33.830;151.202;2023-07-30T14:15:47;4.12;;;3.83;;
25667;SDS011;18003;-33.830;151.202;2023-07-30T14:18:17;3.60;;;3.40;;
25667;SDS011;18003;-33.830;151.202;2023-07-30T14:20:50;3.77;;;3.50;;
25667;SDS011;18003;-33.830;151.202;2023-07-30T14:23:20;4.10;;;3.70;;
25667;SDS011;18003;-33.830;151.202;2023-07-30T14:25:50;4.30;;;3.90;;
25667;SDS011;18003;-33.830;151.202;2023-07-30T14:28:20;3.80;;;3.50;;
25667;SDS011;18003;-33.830;151.202;2023-07-30T14:30:53;4.20;;;3.50;;
25667;SDS011;18003;-33.830;151.202;2023-07-30T14:33:25;3.67;;;3.45;;
25667;SDS011;18003;-33.830;151.202;2023-07-30T14:35:55;3.92;;;3.42;;
25667;SDS011;18003;-33.830;151.202;2023-07-30T14:38:25;6.10;;;3.35;;
25667;SDS011;18003;-33.830;151.202;2023-07-30T14:41:01;3.67;;;3.37;;
25667;SDS011;18003;-33.830;151.202;2023-07-30T14:46:30;3.87;;;3.50;;
25667;SDS011;18003;-33.830;151.202;2023-07-30T14:49:00;4.15;;;3.05;;
25667;SDS011;18003;-33.830;151.202;2023-07-30T14:51:30;3.58;;;3.27;;
25667;SDS011;18003;-33.830;151.202;2023-07-30T14:54:13;3.55;;;3.20;;
25667;SDS011;18003;-33.830;151.202;2023-07-30T14:56:39;3.40;;;3.10;;
25667;SDS011;18003;-33.830;151.202;2023-07-30T14:59:09;3.27;;;3.00;;
25667;SDS011;18003;-33.830;151.202;2023-07-30T15:01:39;3.35;;;3.05;;
25667;SDS011;18003;-33.830;151.202;2023-07-30T15:04:10;3.58;;;3.20;;
25667;SDS011;18003;-33.830;151.202;2023-07-30T15:06:41;3.83;;;3.20;;
25667;SDS011;18003;-33.830;151.202;2023-07-30T15:09:12;4.10;;;3.30;;